createdAt,value
2023-06-29T00:01:39.103Z,79.40
2023-06-29T00:04:07.133Z,79.40
2023-06-29T00:06:38.111Z,79.70
2023-06-29T00:09:06.126Z,79.40
2023-06-29T00:11:35.869Z,79.80
2023-06-29T00:14:03.707Z,80.00
2023-06-29T00:16:32.258Z,80.60
2023-06-29T00:19:01.293Z,80.80
2023-06-29T00:21:29.640Z,81.10
2023-06-29T00:23:59.592Z,81.90
2023-06-29T00:26:31.346Z,82.30
2023-06-29T00:28:59.280Z,82.70
2023-06-29T00:31:27.656Z,83.00
2023-06-29T00:33:55.641Z,83.40
2023-06-29T00:36:23.493Z,83.60
2023-06-29T00:38:51.284Z,83.50
2023-06-29T00:41:20.528Z,83.80
2023-06-29T00:43:48.851Z,83.90
2023-06-29T00:46:20.811Z,84.10
2023-06-29T00:48:49.393Z,83.50
2023-06-29T00:51:18.146Z,84.10
2023-06-29T00:53:46.333Z,84.20
2023-06-29T00:56:14.217Z,84.10
2023-06-29T00:58:43.591Z,84.30
2023-06-29T01:01:11.478Z,84.60
2023-06-29T01:03:41.560Z,84.50
2023-06-29T01:06:14.245Z,84.90
2023-06-29T01:08:46.652Z,85.10
2023-06-29T01:11:16.319Z,84.90
2023-06-29T01:13:47.678Z,85.50
2023-06-29T01:16:16.708Z,85.10
2023-06-29T01:18:46.087Z,85.10
2023-06-29T01:21:15.899Z,85.60
2023-06-29T01:23:47.304Z,85.90
2023-06-29T01:26:16.906Z,86.10
2023-06-29T01:28:44.782Z,85.50
2023-06-29T01:31:13.034Z,86.10
2023-06-29T01:33:41.033Z,86.50
2023-06-29T01:36:13.254Z,86.10
2023-06-29T01:38:47.786Z,87.00
2023-06-29T01:41:19.068Z,87.10
2023-06-29T01:43:48.025Z,86.90
2023-06-29T01:46:16.412Z,87.10
2023-06-29T01:48:44.600Z,88.20
2023-06-29T01:51:12.694Z,88.10
2023-06-29T01:53:41.459Z,88.10
2023-06-29T01:56:10.083Z,88.20
2023-06-29T01:58:39.790Z,88.50
2023-06-29T02:01:07.898Z,88.50
2023-06-29T02:03:36.101Z,88.90
2023-06-29T02:06:04.036Z,88.80
2023-06-29T02:08:31.944Z,89.00
2023-06-29T02:10:59.791Z,89.10
2023-06-29T02:13:27.642Z,89.60
2023-06-29T02:15:57.008Z,90.00
2023-06-29T02:18:24.974Z,90.10
2023-06-29T02:20:54.525Z,90.10
2023-06-29T02:23:22.317Z,90.10
2023-06-29T02:25:50.566Z,89.80
2023-06-29T02:28:18.482Z,90.30
2023-06-29T02:30:46.323Z,90.20
2023-06-29T02:33:15.462Z,90.50
2023-06-29T02:35:43.562Z,90.60
2023-06-29T02:38:11.561Z,90.60
2023-06-29T02:40:39.387Z,90.60
2023-06-29T02:43:07.532Z,90.70
2023-06-29T02:45:35.436Z,91.20
2023-06-29T02:48:03.304Z,91.30
2023-06-29T02:50:32.817Z,91.50
2023-06-29T02:53:00.825Z,91.90
2023-06-29T02:55:28.675Z,92.20
2023-06-29T02:57:56.511Z,92.40
2023-06-29T03:00:24.340Z,92.40
2023-06-29T03:02:52.456Z,92.50
2023-06-29T03:05:20.465Z,92.70
2023-06-29T03:07:49.662Z,92.50
2023-06-29T03:10:17.593Z,92.40
2023-06-29T03:12:45.496Z,92.60
2023-06-29T03:15:13.423Z,92.70
2023-06-29T03:17:41.394Z,93.00
2023-06-29T03:20:10.200Z,93.30
2023-06-29T03:22:38.019Z,93.50
2023-06-29T03:25:08.450Z,93.50
2023-06-29T03:27:36.532Z,93.70
2023-06-29T03:30:05.051Z,93.80
2023-06-29T03:32:33.071Z,94.10
2023-06-29T03:35:00.997Z,94.10
2023-06-29T03:37:28.917Z,94.20
2023-06-29T03:39:56.835Z,94.20
2023-06-29T03:42:26.022Z,94.30
2023-06-29T03:44:53.885Z,94.30
2023-06-29T03:47:21.790Z,94.40
2023-06-29T03:49:49.630Z,94.70
2023-06-29T03:52:17.524Z,94.80
2023-06-29T03:54:45.418Z,95.10
2023-06-29T03:57:13.336Z,95.20
2023-06-29T03:59:42.669Z,95.10
2023-06-29T04:02:12.483Z,95.50
2023-06-29T04:04:40.756Z,95.40
2023-06-29T04:07:08.899Z,95.60
2023-06-29T04:09:36.808Z,95.40
2023-06-29T04:12:05.133Z,95.70
2023-06-29T04:14:33.129Z,96.00
2023-06-29T04:17:02.558Z,95.80
2023-06-29T04:19:30.911Z,95.70
2023-06-29T04:21:58.854Z,95.70
2023-06-29T04:24:26.796Z,95.90
2023-06-29T04:26:54.776Z,96.20
2023-06-29T04:29:23.083Z,96.50
2023-06-29T04:31:52.004Z,96.70
2023-06-29T04:34:21.187Z,96.70
2023-06-29T04:36:49.076Z,96.60
2023-06-29T04:39:17.975Z,96.80
2023-06-29T04:41:47.982Z,97.00
2023-06-29T04:44:15.891Z,96.50
2023-06-29T04:46:44.165Z,96.50
2023-06-29T04:49:12.159Z,96.40
2023-06-29T04:51:41.452Z,96.40
2023-06-29T04:54:09.579Z,96.60
2023-06-29T04:56:37.465Z,96.70
2023-06-29T04:59:05.416Z,96.90
2023-06-29T05:01:33.601Z,96.80
2023-06-29T05:04:02.866Z,96.60
2023-06-29T05:06:31.220Z,96.50
2023-06-29T05:09:00.641Z,96.30
2023-06-29T05:11:28.635Z,96.40
2023-06-29T05:13:56.592Z,96.60
2023-06-29T05:16:24.984Z,96.80
2023-06-29T05:18:52.963Z,96.80
2023-06-29T05:21:21.017Z,96.70
2023-06-29T05:23:49.783Z,96.90
2023-06-29T05:26:19.111Z,96.90
2023-06-29T05:29:00.000Z,96.90
2023-06-29T05:31:32.851Z,96.80
2023-06-29T05:34:00.980Z,96.70
2023-06-29T05:36:30.369Z,96.80
2023-06-29T05:38:58.238Z,96.80
2023-06-29T05:41:27.425Z,96.90
2023-06-29T05:43:55.297Z,96.80
2023-06-29T05:46:24.122Z,96.80
2023-06-29T05:48:52.056Z,96.50
2023-06-29T05:51:19.950Z,96.20
2023-06-29T05:53:47.866Z,96.60
2023-06-29T05:56:15.746Z,96.50
2023-06-29T05:58:45.034Z,96.80
2023-06-29T06:01:14.080Z,96.50
2023-06-29T06:03:42.149Z,96.40
2023-06-29T06:06:11.350Z,96.20
2023-06-29T06:08:39.290Z,96.10
2023-06-29T06:11:07.348Z,95.80
2023-06-29T06:13:35.340Z,95.90
2023-06-29T06:16:05.771Z,95.90
2023-06-29T06:18:33.750Z,95.80
2023-06-29T06:21:01.686Z,95.60
2023-06-29T06:23:30.403Z,95.10
2023-06-29T06:25:59.790Z,95.90
2023-06-29T06:28:28.653Z,96.20
2023-06-29T06:30:56.645Z,95.90
2023-06-29T06:33:25.972Z,95.50
2023-06-29T06:35:53.950Z,95.10
2023-06-29T06:38:22.046Z,94.70
2023-06-29T06:40:52.301Z,94.50
2023-06-29T06:43:20.216Z,94.30
2023-06-29T06:45:49.022Z,94.40
2023-06-29T06:48:17.218Z,95.20
2023-06-29T06:50:46.531Z,94.60
2023-06-29T06:53:14.508Z,94.40
2023-06-29T06:55:42.445Z,94.60
2023-06-29T06:58:10.282Z,93.90
2023-06-29T07:00:39.701Z,93.30
2023-06-29T07:03:07.665Z,93.00
2023-06-29T07:05:35.699Z,93.00
2023-06-29T07:08:05.786Z,93.00
2023-06-29T07:10:33.687Z,92.90
2023-06-29T07:13:01.573Z,92.90
2023-06-29T07:15:29.533Z,92.60
2023-06-29T07:17:57.683Z,92.40
2023-06-29T07:25:30.489Z,91.50
2023-06-29T07:27:58.401Z,91.70
2023-06-29T07:30:27.357Z,91.70
2023-06-29T07:32:55.380Z,90.80
2023-06-29T07:35:23.293Z,91.00
2023-06-29T07:37:51.183Z,89.70
2023-06-29T07:40:20.906Z,88.70
2023-06-29T07:42:50.204Z,88.30
2023-06-29T07:45:18.093Z,86.90
2023-06-29T07:47:46.026Z,86.10
2023-06-29T07:50:15.117Z,85.80
2023-06-29T07:52:43.000Z,84.70
2023-06-29T07:55:11.100Z,83.40
2023-06-29T08:00:12.407Z,81.80
2023-06-29T08:02:40.370Z,82.30
2023-06-29T08:07:40.244Z,80.60
2023-06-29T08:10:09.232Z,78.50
2023-06-29T08:12:37.136Z,78.70
2023-06-29T08:15:05.748Z,77.70
2023-06-29T08:17:35.227Z,78.80
2023-06-29T08:20:05.433Z,78.30
2023-06-29T08:22:33.340Z,77.10
2023-06-29T08:25:01.210Z,77.00
2023-06-29T08:27:29.146Z,77.70
2023-06-29T08:29:57.009Z,76.10
2023-06-29T08:32:24.965Z,76.00
2023-06-29T08:34:54.278Z,76.60
2023-06-29T08:37:22.291Z,76.30
2023-06-29T08:39:50.220Z,75.20
2023-06-29T08:42:18.132Z,74.80
2023-06-29T08:44:46.147Z,73.50
2023-06-29T08:47:14.334Z,72.70
2023-06-29T08:49:44.017Z,71.60
2023-06-29T08:52:16.636Z,70.90
2023-06-29T08:54:45.163Z,71.60
2023-06-29T08:57:13.092Z,71.50
2023-06-29T08:59:41.588Z,70.40
2023-06-29T09:02:11.669Z,69.00
2023-06-29T09:04:41.132Z,69.40
2023-06-29T09:07:10.829Z,69.40
2023-06-29T09:09:40.116Z,69.30
2023-06-29T09:12:11.070Z,68.50
2023-06-29T09:14:45.721Z,68.00
2023-06-29T09:17:19.742Z,68.00
2023-06-29T09:19:58.061Z,68.60
2023-06-29T09:22:29.042Z,67.80
2023-06-29T09:25:07.662Z,65.20
2023-06-29T09:27:40.440Z,64.50
2023-06-29T09:30:09.520Z,62.90
2023-06-29T09:32:40.538Z,62.90
2023-06-29T09:35:10.227Z,63.50
2023-06-29T09:37:38.757Z,63.80
2023-06-29T09:40:11.202Z,62.60
2023-06-29T09:42:39.793Z,62.10
2023-06-29T09:45:12.448Z,61.50
2023-06-29T09:50:21.315Z,61.60
2023-06-29T09:52:54.858Z,61.20
2023-06-29T09:55:33.900Z,60.90
2023-06-29T09:58:04.959Z,60.30
2023-06-29T10:00:33.312Z,59.60
2023-06-29T10:03:02.016Z,59.40
2023-06-29T10:05:32.287Z,59.60
2023-06-29T10:08:02.538Z,58.70
2023-06-29T10:10:35.345Z,58.70
2023-06-29T10:13:06.382Z,58.90
2023-06-29T10:15:37.063Z,59.00
2023-06-29T10:18:10.307Z,58.50
2023-06-29T10:20:41.146Z,58.10
2023-06-29T10:23:10.926Z,58.40
2023-06-29T10:25:45.304Z,58.40
2023-06-29T10:28:15.006Z,58.50
2023-06-29T10:30:47.268Z,59.10
2023-06-29T10:33:15.978Z,59.20
2023-06-29T10:35:53.455Z,59.10
2023-06-29T10:38:21.377Z,59.60
2023-06-29T10:40:51.650Z,59.30
2023-06-29T10:43:19.482Z,60.10
2023-06-29T10:45:47.334Z,59.80
2023-06-29T10:48:38.240Z,61.10
2023-06-29T10:51:08.969Z,60.60
2023-06-29T10:53:36.926Z,61.30
2023-06-29T10:56:06.284Z,61.10
2023-06-29T10:58:38.642Z,60.20
2023-06-29T11:01:06.896Z,61.80
2023-06-29T11:03:36.135Z,61.50
2023-06-29T11:06:07.833Z,61.80
2023-06-29T11:08:35.761Z,62.20
2023-06-29T11:11:16.617Z,61.50
2023-06-29T11:13:44.580Z,61.80
2023-06-29T11:16:15.385Z,61.40
2023-06-29T11:18:49.983Z,62.20
2023-06-29T11:21:21.076Z,63.00
2023-06-29T11:23:52.032Z,63.80
2023-06-29T11:26:22.557Z,62.30
2023-06-29T11:28:50.705Z,62.70
2023-06-29T11:31:18.907Z,62.90
2023-06-29T11:33:49.941Z,62.90
2023-06-29T11:36:29.182Z,63.60
2023-06-29T11:39:10.862Z,63.70
2023-06-29T11:41:41.530Z,63.30
2023-06-29T11:44:12.291Z,64.00
2023-06-29T11:46:46.644Z,64.10
2023-06-29T11:49:21.891Z,64.40
2023-06-29T11:51:52.067Z,64.70
2023-06-29T11:54:20.536Z,64.80
2023-06-29T11:56:50.003Z,64.50
2023-06-29T11:59:17.920Z,64.40
2023-06-29T12:01:46.435Z,64.80
2023-06-29T12:04:15.434Z,65.60
2023-06-29T12:06:52.515Z,64.60
2023-06-29T12:09:20.967Z,65.00
2023-06-29T12:12:01.116Z,65.50
2023-06-29T12:14:30.127Z,65.30
2023-06-29T12:19:33.999Z,65.30
2023-06-29T12:22:03.048Z,65.60
2023-06-29T12:24:31.978Z,65.40
2023-06-29T12:27:04.375Z,65.30
2023-06-29T12:29:32.561Z,65.50
2023-06-29T12:32:01.440Z,65.70
2023-06-29T12:34:32.488Z,66.10
2023-06-29T12:37:01.590Z,66.50
2023-06-29T12:39:30.010Z,65.80
2023-06-29T12:41:57.958Z,66.60
2023-06-29T12:44:27.796Z,68.00
2023-06-29T12:46:56.556Z,69.30
2023-06-29T12:49:27.877Z,70.00
2023-06-29T12:51:56.005Z,69.30
2023-06-29T12:54:23.968Z,67.90
2023-06-29T12:56:51.904Z,67.90
2023-06-29T12:59:19.880Z,68.00
2023-06-29T13:01:49.202Z,66.40
2023-06-29T13:04:17.553Z,66.30
2023-06-29T13:06:45.741Z,66.70
2023-06-29T13:09:13.828Z,66.70
2023-06-29T13:11:41.724Z,67.30
2023-06-29T13:14:09.640Z,67.20
2023-06-29T13:16:38.714Z,67.80
2023-06-29T13:19:07.928Z,68.80
2023-06-29T13:21:36.805Z,67.40
2023-06-29T13:24:05.218Z,67.30
2023-06-29T13:26:33.155Z,66.40
2023-06-29T13:29:01.359Z,67.90
2023-06-29T13:31:29.394Z,69.20
2023-06-29T13:33:57.380Z,69.70
2023-06-29T13:36:26.579Z,65.30
2023-06-29T13:38:55.983Z,65.20
2023-06-29T13:41:37.363Z,66.10
2023-06-29T13:44:06.328Z,64.20
2023-06-29T13:46:34.571Z,64.40
2023-06-29T13:49:03.319Z,64.90
2023-06-29T13:51:33.996Z,62.30
2023-06-29T13:54:03.354Z,62.70
2023-06-29T13:56:32.668Z,60.20
2023-06-29T13:59:04.384Z,59.40
2023-06-29T14:01:32.441Z,58.20
2023-06-29T14:04:02.033Z,58.00
2023-06-29T14:06:30.216Z,57.50
2023-06-29T14:08:59.435Z,57.40
2023-06-29T14:11:28.856Z,55.90
2023-06-29T14:13:58.101Z,55.70
2023-06-29T14:16:26.197Z,56.30
2023-06-29T14:18:54.785Z,56.40
2023-06-29T14:21:23.334Z,56.20
2023-06-29T14:23:51.252Z,56.70
2023-06-29T14:26:20.587Z,56.90
2023-06-29T14:28:48.959Z,57.10
2023-06-29T14:31:18.740Z,58.10
2023-06-29T14:33:47.236Z,58.40
2023-06-29T14:36:15.236Z,58.60
2023-06-29T14:38:43.109Z,58.40
2023-06-29T14:41:11.896Z,58.30
2023-06-29T14:43:41.507Z,58.30
2023-06-29T14:46:09.452Z,58.80
2023-06-29T14:48:37.413Z,58.20
2023-06-29T14:51:05.356Z,58.80
2023-06-29T14:53:33.269Z,59.80
2023-06-29T14:56:08.846Z,59.40
2023-06-29T14:58:37.263Z,59.50
2023-06-29T15:01:06.633Z,59.00
2023-06-29T15:03:34.698Z,59.40
2023-06-29T15:06:02.757Z,59.40
2023-06-29T15:08:31.062Z,59.40
2023-06-29T15:10:58.941Z,59.50
2023-06-29T15:13:27.225Z,59.70
2023-06-29T15:15:55.153Z,59.20
2023-06-29T15:18:24.562Z,59.60
2023-06-29T15:20:52.493Z,59.60
2023-06-29T15:23:20.416Z,59.60
2023-06-29T15:25:48.567Z,59.40
2023-06-29T15:28:16.751Z,59.80
2023-06-29T15:30:53.250Z,59.60
2023-06-29T15:33:21.922Z,59.60
2023-06-29T15:35:51.227Z,60.50
2023-06-29T15:38:20.213Z,60.10
2023-06-29T15:40:50.617Z,59.90
2023-06-29T15:43:18.607Z,60.30
2023-06-29T15:45:47.039Z,60.90
2023-06-29T15:48:15.795Z,60.50
2023-06-29T15:50:44.141Z,60.20
2023-06-29T15:53:14.627Z,60.00
2023-06-29T15:55:43.023Z,59.90
2023-06-29T15:58:11.309Z,60.70
2023-06-29T16:00:39.742Z,60.00
2023-06-29T16:03:07.883Z,60.10
2023-06-29T16:05:36.035Z,60.00
2023-06-29T16:08:04.089Z,60.00
2023-06-29T16:10:33.530Z,60.50
2023-06-29T16:13:01.562Z,59.70
2023-06-29T16:15:30.644Z,59.50
2023-06-29T16:17:58.988Z,59.30
2023-06-29T16:20:26.906Z,59.60
2023-06-29T16:22:54.759Z,59.60
2023-06-29T16:25:24.976Z,59.90
2023-06-29T16:27:55.136Z,59.70
2023-06-29T16:30:23.191Z,59.90
2023-06-29T16:32:51.222Z,60.80
2023-06-29T16:35:19.563Z,59.60
2023-06-29T16:37:47.674Z,60.30
2023-06-29T16:40:15.567Z,59.90
2023-06-29T16:42:43.633Z,60.00
2023-06-29T16:45:14.323Z,60.20
2023-06-29T16:47:42.244Z,60.40
2023-06-29T16:50:10.859Z,60.30
2023-06-29T16:52:39.120Z,60.50
2023-06-29T16:55:07.347Z,60.70
2023-06-29T16:57:35.242Z,60.60
2023-06-29T17:00:03.606Z,61.40
2023-06-29T17:02:32.901Z,61.30
2023-06-29T17:05:01.177Z,61.40
2023-06-29T17:07:29.148Z,61.10
2023-06-29T17:09:57.059Z,61.30
2023-06-29T17:12:25.037Z,61.40
2023-06-29T17:14:53.009Z,61.70
2023-06-29T17:17:21.041Z,62.10
2023-06-29T17:19:50.556Z,61.60
2023-06-29T17:22:18.483Z,61.50
2023-06-29T17:24:46.617Z,61.10
2023-06-29T17:27:14.517Z,60.80
2023-06-29T17:29:43.288Z,61.20
2023-06-29T17:32:11.246Z,61.50
2023-06-29T17:34:39.390Z,61.70
2023-06-29T17:37:09.044Z,61.90
2023-06-29T17:39:37.106Z,61.50
2023-06-29T17:42:05.939Z,61.90
2023-06-29T17:44:33.961Z,61.90
2023-06-29T17:47:01.915Z,62.50
2023-06-29T17:49:29.794Z,62.50
2023-06-29T17:51:57.639Z,62.50
2023-06-29T17:54:26.860Z,62.80
2023-06-29T17:56:54.734Z,62.80
2023-06-29T17:59:22.636Z,63.00
2023-06-29T18:01:51.117Z,63.90
2023-06-29T18:04:19.270Z,64.20
2023-06-29T18:06:47.272Z,64.50
2023-06-29T18:09:15.695Z,64.70
2023-06-29T18:11:44.887Z,64.60
2023-06-29T18:14:12.733Z,64.90
2023-06-29T18:16:41.055Z,65.10
2023-06-29T18:19:09.079Z,65.30
2023-06-29T18:21:37.319Z,65.40
2023-06-29T18:24:05.983Z,65.40
2023-06-29T18:26:35.037Z,65.40
2023-06-29T18:29:04.448Z,65.70
2023-06-29T18:31:32.509Z,65.70
2023-06-29T18:34:00.536Z,65.80
2023-06-29T18:36:29.374Z,65.90
2023-06-29T18:38:57.875Z,66.00
2023-06-29T18:41:30.846Z,66.20
2023-06-29T18:43:59.656Z,66.40
2023-06-29T18:46:29.799Z,66.70
2023-06-29T18:48:57.995Z,66.80
2023-06-29T18:51:27.156Z,66.90
2023-06-29T18:53:55.449Z,67.30
2023-06-29T18:56:23.555Z,67.00
2023-06-29T18:58:52.226Z,67.50
2023-06-29T19:01:21.143Z,67.70
2023-06-29T19:03:50.828Z,67.60
2023-06-29T19:06:18.935Z,67.70
2023-06-29T19:08:46.949Z,67.80
2023-06-29T19:11:14.905Z,68.10
2023-06-29T19:13:42.892Z,68.20
2023-06-29T19:16:10.723Z,68.80
2023-06-29T19:18:38.537Z,68.10
2023-06-29T19:21:07.733Z,68.50
2023-06-29T19:23:35.557Z,68.70
2023-06-29T19:26:03.386Z,68.70
2023-06-29T19:28:31.298Z,68.80
2023-06-29T19:30:59.719Z,69.30
2023-06-29T19:33:27.583Z,69.80
2023-06-29T19:35:55.636Z,70.20
2023-06-29T19:38:24.838Z,70.70
2023-06-29T19:40:52.723Z,71.10
2023-06-29T19:47:01.769Z,72.20
2023-06-29T19:49:29.639Z,73.80
2023-06-29T19:51:58.657Z,73.80
2023-06-29T19:54:28.586Z,73.90
2023-06-29T19:56:56.624Z,74.10
2023-06-29T19:59:26.873Z,73.70
2023-06-29T20:01:56.650Z,73.80
2023-06-29T20:04:24.709Z,74.00
2023-06-29T20:06:52.736Z,73.50
2023-06-29T20:09:20.810Z,73.10
2023-06-29T20:11:50.109Z,73.20
2023-06-29T20:14:18.006Z,72.90
2023-06-29T20:16:45.894Z,73.80
2023-06-29T20:19:14.285Z,73.40
2023-06-29T20:21:42.271Z,73.80
2023-06-29T20:24:10.542Z,74.00
2023-06-29T20:26:41.304Z,74.40
2023-06-29T20:29:10.560Z,75.00
2023-06-29T20:31:38.849Z,74.50
2023-06-29T20:34:06.720Z,75.20
2023-06-29T20:36:34.584Z,75.60
2023-06-29T20:39:02.458Z,75.70
2023-06-29T20:41:30.774Z,75.90
2023-06-29T20:43:58.639Z,76.20
2023-06-29T20:46:31.344Z,76.30
2023-06-29T20:48:59.213Z,76.40
2023-06-29T20:51:27.398Z,76.70
2023-06-29T20:53:55.221Z,77.10
2023-06-29T20:56:23.293Z,77.00
2023-06-29T20:58:51.271Z,78.50
2023-06-29T21:01:19.216Z,79.10
2023-06-29T21:03:48.465Z,79.30
2023-06-29T21:06:16.493Z,79.50
2023-06-29T21:08:44.376Z,79.60
2023-06-29T21:11:12.748Z,79.60
2023-06-29T21:13:40.918Z,79.60
2023-06-29T21:16:09.394Z,79.50
2023-06-29T21:18:38.002Z,79.80
2023-06-29T21:21:08.189Z,79.60
2023-06-29T21:23:36.312Z,80.30
2023-06-29T21:26:04.646Z,80.00
2023-06-29T21:28:34.961Z,79.80
2023-06-29T21:31:05.165Z,80.70
2023-06-29T21:33:33.513Z,80.80
2023-06-29T21:36:01.883Z,80.90
2023-06-29T21:38:32.466Z,81.20
2023-06-29T21:41:01.166Z,81.00
2023-06-29T21:43:30.461Z,81.20
2023-06-29T21:45:58.357Z,81.50
2023-06-29T21:48:26.316Z,81.70
2023-06-29T21:50:54.301Z,82.80
2023-06-29T21:53:22.167Z,83.30
2023-06-29T21:55:51.423Z,83.80
2023-06-29T21:58:19.340Z,83.70
2023-06-29T22:00:47.726Z,84.10
2023-06-29T22:03:15.892Z,84.40
2023-06-29T22:05:44.285Z,84.70
2023-06-29T22:08:12.450Z,84.80
2023-06-29T22:10:40.310Z,85.10
2023-06-29T22:13:09.670Z,85.30
2023-06-29T22:15:43.862Z,85.80
2023-06-29T22:18:12.240Z,85.80
2023-06-29T22:20:40.294Z,85.90
2023-06-29T22:23:08.199Z,86.90
2023-06-29T22:25:36.877Z,86.70
2023-06-29T22:28:05.035Z,87.00
2023-06-29T22:30:34.310Z,86.90
2023-06-29T22:33:02.285Z,87.60
2023-06-29T22:35:30.641Z,87.60
2023-06-29T22:37:59.426Z,87.90
2023-06-29T22:40:27.281Z,88.50
2023-06-29T22:42:55.205Z,88.70
2023-06-29T22:45:24.229Z,88.80
2023-06-29T22:47:53.490Z,89.60
2023-06-29T22:50:21.863Z,89.80
2023-06-29T22:52:49.761Z,90.70
2023-06-29T22:55:17.779Z,90.50
2023-06-29T22:57:46.497Z,90.50
2023-06-29T23:00:15.230Z,90.80
2023-06-29T23:02:43.541Z,90.90
2023-06-29T23:05:13.901Z,91.00
2023-06-29T23:07:44.556Z,90.90
2023-06-29T23:10:14.355Z,91.20
2023-06-29T23:12:46.509Z,91.40
2023-06-29T23:15:15.440Z,91.50
2023-06-29T23:17:44.007Z,91.40
2023-06-29T23:20:14.137Z,91.70
2023-06-29T23:22:42.926Z,91.90
2023-06-29T23:25:11.048Z,92.30
2023-06-29T23:27:42.816Z,92.40
2023-06-29T23:30:12.565Z,92.70
2023-06-29T23:32:43.040Z,92.60
2023-06-29T23:35:13.106Z,92.80
2023-06-29T23:37:41.039Z,93.10
2023-06-29T23:40:11.599Z,93.00
2023-06-29T23:42:40.181Z,93.00
2023-06-29T23:45:10.604Z,93.10
2023-06-29T23:47:39.222Z,93.20
2023-06-29T23:50:10.562Z,93.50
2023-06-29T23:52:40.421Z,93.50
2023-06-29T23:55:08.965Z,93.20
2023-06-29T23:57:36.929Z,93.30
